Terminal Aerodrome Forecast
Issued by NWS Wilmington, OH

Current Version | Previous Version | Text Only | Print | Product List | Glossary Off
Versions: 1 2 3 4 5 6 7 8 9 10 11 12 13 14 15 16 17 18 19 20 21 22 23 24 25 26 27 28 29

571
FTUS41 KILN 290224 AAB
TAFILN
TAF AMD
KILN 290224Z 2902/2924 11008KT 3SM -TSRA OVC050CB
      TEMPO 2902/2905 05016G25KT 1SM +TSRA OVC012CB
     FM290500 20006KT 5SM -SHRA VCTS OVC015CB
      TEMPO 2905/2909 2SM TSRA
     FM290900 20008KT 5SM -SHRA VCTS OVC015CB
     FM291300 20012G17KT P6SM -SHRA BKN015
     FM291600 23011KT P6SM VCSH OVC025=

USA.gov is the U.S. government's official web portal to all federal, state and local government web resources and services.